sensor_id;sensor_type;location;lat;lon;timestamp;temperature;humidity
20174;DHT22;10246;50.620;7.232;2023-03-01T00:00:04;-0.10;1.00
20174;DHT22;10246;50.620;7.232;2023-03-01T00:02:34;-0.10;1.00
20174;DHT22;10246;50.620;7.232;2023-03-01T00:05:00;-0.20;1.00
20174;DHT22;10246;50.620;7.232;2023-03-01T00:07:27;-0.20;1.00
20174;DHT22;10246;50.620;7.232;2023-03-01T00:09:54;-0.30;1.00
20174;DHT22;10246;50.620;7.232;2023-03-01T00:12:22;-0.30;1.00
20174;DHT22;10246;50.620;7.232;2023-03-01T00:14:49;-0.30;1.00
20174;DHT22;10246;50.620;7.232;2023-03-01T00:17:16;-0.30;1.00
20174;DHT22;10246;50.620;7.232;2023-03-01T00:19:44;-0.30;1.00
20174;DHT22;10246;50.620;7.232;2023-03-01T00:22:10;-0.30;1.00
20174;DHT22;10246;50.620;7.232;2023-03-01T00:24:37;-0.30;1.00
20174;DHT22;10246;50.620;7.232;2023-03-01T00:27:04;-0.30;1.00
20174;DHT22;10246;50.620;7.232;2023-03-01T00:29:31;-0.30;1.00
20174;DHT22;10246;50.620;7.232;2023-03-01T00:31:58;-0.30;1.00
20174;DHT22;10246;50.620;7.232;2023-03-01T00:34:27;-0.30;1.00
20174;DHT22;10246;50.620;7.232;2023-03-01T00:36:55;-0.40;1.00
20174;DHT22;10246;50.620;7.232;2023-03-01T00:39:31;-0.40;1.00
20174;DHT22;10246;50.620;7.232;2023-03-01T00:41:58;-0.40;1.00
20174;DHT22;10246;50.620;7.232;2023-03-01T00:44:25;-0.50;1.00
20174;DHT22;10246;50.620;7.232;2023-03-01T00:46:52;-0.50;1.00
20174;DHT22;10246;50.620;7.232;2023-03-01T00:49:18;-0.40;1.00
20174;DHT22;10246;50.620;7.232;2023-03-01T00:51:45;-0.40;1.00
20174;DHT22;10246;50.620;7.232;2023-03-01T00:54:13;-0.40;1.00
20174;DHT22;10246;50.620;7.232;2023-03-01T00:56:40;-0.40;1.00
20174;DHT22;10246;50.620;7.232;2023-03-01T00:59:07;-0.40;1.00
20174;DHT22;10246;50.620;7.232;2023-03-01T01:01:34;-0.40;1.00
20174;DHT22;10246;50.620;7.232;2023-03-01T01:04:03;-0.50;1.00
20174;DHT22;10246;50.620;7.232;2023-03-01T01:06:31;-0.50;1.00
20174;DHT22;10246;50.620;7.232;2023-03-01T01:08:59;-0.50;1.00
20174;DHT22;10246;50.620;7.232;2023-03-01T01:11:29;-0.60;1.00
20174;DHT22;10246;50.620;7.232;2023-03-01T01:13:56;-0.60;1.00
20174;DHT22;10246;50.620;7.232;2023-03-01T01:16:25;-0.60;1.00
20174;DHT22;10246;50.620;7.232;2023-03-01T01:18:53;-0.70;1.00
20174;DHT22;10246;50.620;7.232;2023-03-01T01:21:22;-0.60;1.00
20174;DHT22;10246;50.620;7.232;2023-03-01T01:23:50;-0.60;1.00
20174;DHT22;10246;50.620;7.232;2023-03-01T01:26:18;-0.60;1.00
20174;DHT22;10246;50.620;7.232;2023-03-01T01:28:47;-0.60;1.00
20174;DHT22;10246;50.620;7.232;2023-03-01T01:31:14;-0.60;1.00
20174;DHT22;10246;50.620;7.232;2023-03-01T01:33:41;-0.60;1.00
20174;DHT22;10246;50.620;7.232;2023-03-01T01:36:08;-0.70;1.00
20174;DHT22;10246;50.620;7.232;2023-03-01T01:38:37;-0.80;1.00
20174;DHT22;10246;50.620;7.232;2023-03-01T01:41:05;-0.80;1.00
20174;DHT22;10246;50.620;7.232;2023-03-01T01:43:35;-0.80;1.00
20174;DHT22;10246;50.620;7.232;2023-03-01T01:46:05;-0.80;1.00
20174;DHT22;10246;50.620;7.232;2023-03-01T01:48:39;-0.90;1.00
20174;DHT22;10246;50.620;7.232;2023-03-01T01:51:11;-0.80;1.00
20174;DHT22;10246;50.620;7.232;2023-03-01T01:53:40;-0.80;1.00
20174;DHT22;10246;50.620;7.232;2023-03-01T01:56:08;-0.80;1.00
20174;DHT22;10246;50.620;7.232;2023-03-01T01:58:38;-0.80;1.00
20174;DHT22;10246;50.620;7.232;2023-03-01T02:01:07;-0.90;1.00
20174;DHT22;10246;50.620;7.232;2023-03-01T02:03:35;-0.90;1.00
20174;DHT22;10246;50.620;7.232;2023-03-01T02:06:12;-0.90;1.00
20174;DHT22;10246;50.620;7.232;2023-03-01T02:08:42;-1.00;1.00
20174;DHT22;10246;50.620;7.232;2023-03-01T02:11:10;-1.00;1.00
20174;DHT22;10246;50.620;7.232;2023-03-01T02:13:40;-1.00;1.00
20174;DHT22;10246;50.620;7.232;2023-03-01T02:16:11;-1.10;1.00
20174;DHT22;10246;50.620;7.232;2023-03-01T02:18:38;-1.10;1.00
20174;DHT22;10246;50.620;7.232;2023-03-01T02:23:53;-1.10;1.00
20174;DHT22;10246;50.620;7.232;2023-03-01T02:26:27;-1.10;1.00
20174;DHT22;10246;50.620;7.232;2023-03-01T02:28:57;-1.20;1.00
20174;DHT22;10246;50.620;7.232;2023-03-01T02:31:24;-1.20;1.00
20174;DHT22;10246;50.620;7.232;2023-03-01T02:34:12;-1.20;1.00
20174;DHT22;10246;50.620;7.232;2023-03-01T02:36:43;-1.20;1.00
20174;DHT22;10246;50.620;7.232;2023-03-01T02:39:14;-1.10;1.00
20174;DHT22;10246;50.620;7.232;2023-03-01T02:41:45;-1.10;1.00
20174;DHT22;10246;50.620;7.232;2023-03-01T02:44:14;-1.10;1.00
20174;DHT22;10246;50.620;7.232;2023-03-01T02:46:46;-1.10;1.00
20174;DHT22;10246;50.620;7.232;2023-03-01T02:49:20;-1.20;1.00
20174;DHT22;10246;50.620;7.232;2023-03-01T02:52:07;-1.10;1.00
20174;DHT22;10246;50.620;7.232;2023-03-01T02:54:40;-1.20;1.00
20174;DHT22;10246;50.620;7.232;2023-03-01T02:57:08;-1.20;1.00
20174;DHT22;10246;50.620;7.232;2023-03-01T02:59:37;-1.20;1.00
20174;DHT22;10246;50.620;7.232;2023-03-01T03:02:05;-1.20;1.00
20174;DHT22;10246;50.620;7.232;2023-03-01T03:04:32;-1.20;1.00
20174;DHT22;10246;50.620;7.232;2023-03-01T03:06:59;-1.20;1.00
20174;DHT22;10246;50.620;7.232;2023-03-01T03:09:26;-1.20;1.00
20174;DHT22;10246;50.620;7.232;2023-03-01T03:11:53;-1.20;1.00
20174;DHT22;10246;50.620;7.232;2023-03-01T03:14:20;-1.20;1.00
20174;DHT22;10246;50.620;7.232;2023-03-01T03:16:49;-1.20;1.00
20174;DHT22;10246;50.620;7.232;2023-03-01T03:19:17;-1.20;1.00
20174;DHT22;10246;50.620;7.232;2023-03-01T03:21:44;-1.30;1.00
20174;DHT22;10246;50.620;7.232;2023-03-01T03:24:11;-1.30;1.00
20174;DHT22;10246;50.620;7.232;2023-03-01T03:26:37;-1.30;1.00
20174;DHT22;10246;50.620;7.232;2023-03-01T03:29:04;-1.30;1.00
20174;DHT22;10246;50.620;7.232;2023-03-01T03:31:31;-1.70;1.00
20174;DHT22;10246;50.620;7.232;2023-03-01T03:33:59;-1.40;1.00
20174;DHT22;10246;50.620;7.232;2023-03-01T03:36:26;-1.40;1.00
20174;DHT22;10246;50.620;7.232;2023-03-01T03:38:53;-1.50;1.00
20174;DHT22;10246;50.620;7.232;2023-03-01T03:41:20;-1.50;1.00
20174;DHT22;10246;50.620;7.232;2023-03-01T03:43:46;-1.50;1.00
20174;DHT22;10246;50.620;7.232;2023-03-01T03:46:14;-1.60;1.00
20174;DHT22;10246;50.620;7.232;2023-03-01T03:48:43;-1.60;1.00
20174;DHT22;10246;50.620;7.232;2023-03-01T03:51:13;-1.60;1.00
20174;DHT22;10246;50.620;7.232;2023-03-01T03:53:41;-1.60;1.00
20174;DHT22;10246;50.620;7.232;2023-03-01T03:56:08;-1.60;1.00
20174;DHT22;10246;50.620;7.232;2023-03-01T03:58:35;-1.60;1.00
20174;DHT22;10246;50.620;7.232;2023-03-01T04:01:03;-1.60;1.00
20174;DHT22;10246;50.620;7.232;2023-03-01T04:03:30;-1.70;1.00
20174;DHT22;10246;50.620;7.232;2023-03-01T04:05:59;-1.70;1.00
20174;DHT22;10246;50.620;7.232;2023-03-01T04:08:28;-1.70;1.00
20174;DHT22;10246;50.620;7.232;2023-03-01T04:10:58;-1.70;1.00
20174;DHT22;10246;50.620;7.232;2023-03-01T04:13:26;-1.70;1.00
20174;DHT22;10246;50.620;7.232;2023-03-01T04:15:53;-1.70;1.00
20174;DHT22;10246;50.620;7.232;2023-03-01T04:18:22;-1.70;1.00
20174;DHT22;10246;50.620;7.232;2023-03-01T04:20:50;-1.70;1.00
20174;DHT22;10246;50.620;7.232;2023-03-01T04:23:20;-1.80;1.00
20174;DHT22;10246;50.620;7.232;2023-03-01T04:25:50;-1.80;1.00
20174;DHT22;10246;50.620;7.232;2023-03-01T04:28:21;-1.90;1.00
20174;DHT22;10246;50.620;7.232;2023-03-01T04:30:49;-1.80;1.00
20174;DHT22;10246;50.620;7.232;2023-03-01T04:33:17;-1.80;1.00
20174;DHT22;10246;50.620;7.232;2023-03-01T04:35:43;-1.80;1.00
20174;DHT22;10246;50.620;7.232;2023-03-01T04:38:11;-1.80;1.00
20174;DHT22;10246;50.620;7.232;2023-03-01T04:40:38;-1.80;1.00
20174;DHT22;10246;50.620;7.232;2023-03-01T04:43:06;-1.70;1.00
20174;DHT22;10246;50.620;7.232;2023-03-01T04:45:33;-1.70;1.00
20174;DHT22;10246;50.620;7.232;2023-03-01T04:48:01;-1.80;1.00
20174;DHT22;10246;50.620;7.232;2023-03-01T04:50:29;-1.90;1.00
20174;DHT22;10246;50.620;7.232;2023-03-01T04:52:56;-1.70;1.00
20174;DHT22;10246;50.620;7.232;2023-03-01T04:55:24;-1.90;1.00
20174;DHT22;10246;50.620;7.232;2023-03-01T04:57:51;-1.90;1.00
20174;DHT22;10246;50.620;7.232;2023-03-01T05:00:20;-1.90;1.00
20174;DHT22;10246;50.620;7.232;2023-03-01T05:02:49;-1.90;1.00
20174;DHT22;10246;50.620;7.232;2023-03-01T05:05:19;-2.20;1.00
20174;DHT22;10246;50.620;7.232;2023-03-01T05:07:47;-2.10;1.00
20174;DHT22;10246;50.620;7.232;2023-03-01T05:10:14;-2.10;1.00
20174;DHT22;10246;50.620;7.232;2023-03-01T05:12:41;-2.30;1.00
20174;DHT22;10246;50.620;7.232;2023-03-01T05:15:08;-2.20;1.00
20174;DHT22;10246;50.620;7.232;2023-03-01T05:17:37;-2.40;1.00
20174;DHT22;10246;50.620;7.232;2023-03-01T05:20:04;-2.10;1.00
20174;DHT22;10246;50.620;7.232;2023-03-01T05:22:34;-2.20;1.00
20174;DHT22;10246;50.620;7.232;2023-03-01T05:25:01;-1.80;1.00
20174;DHT22;10246;50.620;7.232;2023-03-01T05:27:29;-2.10;1.00
20174;DHT22;10246;50.620;7.232;2023-03-01T05:29:56;-2.20;1.00
20174;DHT22;10246;50.620;7.232;2023-03-01T05:32:23;-2.60;1.00
20174;DHT22;10246;50.620;7.232;2023-03-01T05:34:51;-2.30;1.00
20174;DHT22;10246;50.620;7.232;2023-03-01T05:37:19;-2.30;1.00
20174;DHT22;10246;50.620;7.232;2023-03-01T05:39:46;-2.30;1.00
20174;DHT22;10246;50.620;7.232;2023-03-01T05:42:15;-2.40;1.00
20174;DHT22;10246;50.620;7.232;2023-03-01T05:44:42;-2.40;1.00
20174;DHT22;10246;50.620;7.232;2023-03-01T05:47:10;-2.30;1.00
20174;DHT22;10246;50.620;7.232;2023-03-01T05:49:36;-2.60;1.00
20174;DHT22;10246;50.620;7.232;2023-03-01T05:52:04;-2.40;1.00
20174;DHT22;10246;50.620;7.232;2023-03-01T05:54:32;-2.20;1.00
20174;DHT22;10246;50.620;7.232;2023-03-01T05:56:58;-2.20;1.00
20174;DHT22;10246;50.620;7.232;2023-03-01T05:59:25;-2.10;1.00
20174;DHT22;10246;50.620;7.232;2023-03-01T06:01:52;-2.50;1.00
20174;DHT22;10246;50.620;7.232;2023-03-01T06:04:18;-2.20;1.00
20174;DHT22;10246;50.620;7.232;2023-03-01T06:06:46;-2.10;1.00
20174;DHT22;10246;50.620;7.232;2023-03-01T06:09:14;-2.20;1.00
20174;DHT22;10246;50.620;7.232;2023-03-01T06:11:41;-2.30;1.00
20174;DHT22;10246;50.620;7.232;2023-03-01T06:14:08;-2.20;1.00
20174;DHT22;10246;50.620;7.232;2023-03-01T06:16:35;-2.30;1.00
20174;DHT22;10246;50.620;7.232;2023-03-01T06:19:02;-2.30;1.00
20174;DHT22;10246;50.620;7.232;2023-03-01T06:21:29;-2.30;1.00
20174;DHT22;10246;50.620;7.232;2023-03-01T06:23:56;-2.40;1.00
20174;DHT22;10246;50.620;7.232;2023-03-01T06:26:24;-2.40;1.00
20174;DHT22;10246;50.620;7.232;2023-03-01T06:28:51;-2.40;1.00
20174;DHT22;10246;50.620;7.232;2023-03-01T06:31:17;-2.40;1.00
20174;DHT22;10246;50.620;7.232;2023-03-01T06:33:44;-2.30;1.00
20174;DHT22;10246;50.620;7.232;2023-03-01T06:36:11;-2.30;1.00
20174;DHT22;10246;50.620;7.232;2023-03-01T06:38:38;-2.40;1.00
20174;DHT22;10246;50.620;7.232;2023-03-01T06:41:06;-2.20;1.00
20174;DHT22;10246;50.620;7.232;2023-03-01T06:43:34;-2.40;1.00
20174;DHT22;10246;50.620;7.232;2023-03-01T06:46:04;-2.40;1.00
20174;DHT22;10246;50.620;7.232;2023-03-01T06:48:32;-2.40;1.00
20174;DHT22;10246;50.620;7.232;2023-03-01T06:50:59;-2.40;1.00
20174;DHT22;10246;50.620;7.232;2023-03-01T06:53:26;-2.30;1.00
20174;DHT22;10246;50.620;7.232;2023-03-01T06:55:54;-2.40;1.00
20174;DHT22;10246;50.620;7.232;2023-03-01T06:58:21;-2.30;1.00
20174;DHT22;10246;50.620;7.232;2023-03-01T07:00:52;-2.40;1.00
20174;DHT22;10246;50.620;7.232;2023-03-01T07:03:19;-2.20;1.10
20174;DHT22;10246;50.620;7.232;2023-03-01T07:05:48;-2.50;1.00
20174;DHT22;10246;50.620;7.232;2023-03-01T07:08:17;-2.20;1.00
20174;DHT22;10246;50.620;7.232;2023-03-01T07:10:43;-2.20;1.10
20174;DHT22;10246;50.620;7.232;2023-03-01T07:13:10;-2.40;1.10
20174;DHT22;10246;50.620;7.232;2023-03-01T07:15:37;-2.40;1.20
20174;DHT22;10246;50.620;7.232;2023-03-01T07:18:05;-2.20;1.70
20174;DHT22;10246;50.620;7.232;2023-03-01T07:20:32;-2.40;1.50
20174;DHT22;10246;50.620;7.232;2023-03-01T07:22:59;-2.10;1.50
20174;DHT22;10246;50.620;7.232;2023-03-01T07:25:25;-2.30;1.30
20174;DHT22;10246;50.620;7.232;2023-03-01T07:27:52;-2.30;1.40
20174;DHT22;10246;50.620;7.232;2023-03-01T07:30:20;-2.20;1.60
20174;DHT22;10246;50.620;7.232;2023-03-01T07:32:47;-2.20;1.90
20174;DHT22;10246;50.620;7.232;2023-03-01T07:35:15;-2.20;2.10
20174;DHT22;10246;50.620;7.232;2023-03-01T07:37:42;-2.20;2.40
20174;DHT22;10246;50.620;7.232;2023-03-01T07:40:10;-2.00;2.70
20174;DHT22;10246;50.620;7.232;2023-03-01T07:42:37;-2.10;2.70
20174;DHT22;10246;50.620;7.232;2023-03-01T07:45:05;-2.10;2.90
20174;DHT22;10246;50.620;7.232;2023-03-01T07:47:32;-2.10;2.90
20174;DHT22;10246;50.620;7.232;2023-03-01T07:49:59;-2.00;2.80
20174;DHT22;10246;50.620;7.232;2023-03-01T07:52:27;-1.90;2.70
20174;DHT22;10246;50.620;7.232;2023-03-01T07:54:54;-2.30;3.00
20174;DHT22;10246;50.620;7.232;2023-03-01T07:57:21;-1.80;3.40
20174;DHT22;10246;50.620;7.232;2023-03-01T07:59:48;-1.80;3.30
20174;DHT22;10246;50.620;7.232;2023-03-01T08:02:15;-1.70;3.60
20174;DHT22;10246;50.620;7.232;2023-03-01T08:04:42;-1.80;3.70
20174;DHT22;10246;50.620;7.232;2023-03-01T08:07:08;-1.60;3.70
20174;DHT22;10246;50.620;7.232;2023-03-01T08:09:37;-1.50;3.90
20174;DHT22;10246;50.620;7.232;2023-03-01T08:12:04;-1.60;3.90
20174;DHT22;10246;50.620;7.232;2023-03-01T08:14:32;-1.50;4.00
20174;DHT22;10246;50.620;7.232;2023-03-01T08:16:58;-1.50;4.40
20174;DHT22;10246;50.620;7.232;2023-03-01T08:19:25;-1.40;4.40
20174;DHT22;10246;50.620;7.232;2023-03-01T08:21:53;-1.40;4.50
20174;DHT22;10246;50.620;7.232;2023-03-01T08:24:20;-1.40;4.60
20174;DHT22;10246;50.620;7.232;2023-03-01T08:26:48;-1.40;4.70
20174;DHT22;10246;50.620;7.232;2023-03-01T08:29:15;-1.20;4.70
20174;DHT22;10246;50.620;7.232;2023-03-01T08:31:42;-1.10;4.60
20174;DHT22;10246;50.620;7.232;2023-03-01T08:34:12;-1.10;4.10
20174;DHT22;10246;50.620;7.232;2023-03-01T08:36:40;-1.00;4.00
20174;DHT22;10246;50.620;7.232;2023-03-01T08:39:09;-0.90;3.80
20174;DHT22;10246;50.620;7.232;2023-03-01T08:41:36;-0.80;3.30
20174;DHT22;10246;50.620;7.232;2023-03-01T08:44:05;-0.80;3.40
20174;DHT22;10246;50.620;7.232;2023-03-01T08:46:34;-0.70;3.60
20174;DHT22;10246;50.620;7.232;2023-03-01T08:49:03;-0.60;3.60
20174;DHT22;10246;50.620;7.232;2023-03-01T08:51:30;-0.40;3.70
20174;DHT22;10246;50.620;7.232;2023-03-01T08:54:02;-0.20;2.00
20174;DHT22;10246;50.620;7.232;2023-03-01T08:56:29;-0.10;1.30
20174;DHT22;10246;50.620;7.232;2023-03-01T08:58:56;0.00;1.00
20174;DHT22;10246;50.620;7.232;2023-03-01T09:01:24;0.20;1.00
20174;DHT22;10246;50.620;7.232;2023-03-01T09:03:51;0.40;1.00
20174;DHT22;10246;50.620;7.232;2023-03-01T09:06:18;0.50;1.00
20174;DHT22;10246;50.620;7.232;2023-03-01T09:08:46;0.70;1.00
20174;DHT22;10246;50.620;7.232;2023-03-01T09:11:15;0.80;1.00
20174;DHT22;10246;50.620;7.232;2023-03-01T09:13:42;1.00;1.00
20174;DHT22;10246;50.620;7.232;2023-03-01T09:16:11;1.10;1.00
20174;DHT22;10246;50.620;7.232;2023-03-01T09:18:40;1.20;1.00
20174;DHT22;10246;50.620;7.232;2023-03-01T09:21:08;1.40;1.00
20174;DHT22;10246;50.620;7.232;2023-03-01T09:23:35;1.60;1.00
20174;DHT22;10246;50.620;7.232;2023-03-01T09:26:04;1.70;1.00
20174;DHT22;10246;50.620;7.232;2023-03-01T09:28:31;1.80;1.00
20174;DHT22;10246;50.620;7.232;2023-03-01T09:30:59;2.00;1.00
20174;DHT22;10246;50.620;7.232;2023-03-01T09:33:26;2.10;1.00
20174;DHT22;10246;50.620;7.232;2023-03-01T09:35:57;2.10;1.00
20174;DHT22;10246;50.620;7.232;2023-03-01T09:38:26;2.20;1.00
20174;DHT22;10246;50.620;7.232;2023-03-01T09:40:53;2.40;1.00
20174;DHT22;10246;50.620;7.232;2023-03-01T09:43:25;2.60;1.00
20174;DHT22;10246;50.620;7.232;2023-03-01T09:45:54;2.70;1.00
20174;DHT22;10246;50.620;7.232;2023-03-01T09:48:25;2.80;1.00
20174;DHT22;10246;50.620;7.232;2023-03-01T09:50:52;2.80;1.00
20174;DHT22;10246;50.620;7.232;2023-03-01T09:53:23;2.90;1.00
20174;DHT22;10246;50.620;7.232;2023-03-01T09:55:58;3.00;1.00
20174;DHT22;10246;50.620;7.232;2023-03-01T09:58:31;3.10;1.00
20174;DHT22;10246;50.620;7.232;2023-03-01T10:01:04;3.30;1.00
20174;DHT22;10246;50.620;7.232;2023-03-01T10:03:41;3.40;1.00
20174;DHT22;10246;50.620;7.232;2023-03-01T10:06:13;3.60;1.00
20174;DHT22;10246;50.620;7.232;2023-03-01T10:08:46;3.70;1.00
20174;DHT22;10246;50.620;7.232;2023-03-01T10:11:20;3.90;1.00
20174;DHT22;10246;50.620;7.232;2023-03-01T10:13:54;3.90;1.00
20174;DHT22;10246;50.620;7.232;2023-03-01T10:16:28;4.00;1.00
20174;DHT22;10246;50.620;7.232;2023-03-01T10:19:02;4.30;1.00
20174;DHT22;10246;50.620;7.232;2023-03-01T10:21:30;4.40;1.00
20174;DHT22;10246;50.620;7.232;2023-03-01T10:24:24;4.60;1.00
20174;DHT22;10246;50.620;7.232;2023-03-01T10:27:00;4.80;1.00
20174;DHT22;10246;50.620;7.232;2023-03-01T10:29:42;5.10;1.00
20174;DHT22;10246;50.620;7.232;2023-03-01T10:32:22;5.40;1.00
20174;DHT22;10246;50.620;7.232;2023-03-01T10:34:52;5.50;1.00
20174;DHT22;10246;50.620;7.232;2023-03-01T10:37:25;5.60;1.00
20174;DHT22;10246;50.620;7.232;2023-03-01T10:40:00;5.70;1.00
20174;DHT22;10246;50.620;7.232;2023-03-01T10:42:33;5.80;1.00
20174;DHT22;10246;50.620;7.232;2023-03-01T10:45:16;5.80;1.00
20174;DHT22;10246;50.620;7.232;2023-03-01T10:47:43;5.80;1.00
20174;DHT22;10246;50.620;7.232;2023-03-01T10:50:19;5.80;1.00
20174;DHT22;10246;50.620;7.232;2023-03-01T10:52:57;6.00;1.00
20174;DHT22;10246;50.620;7.232;2023-03-01T10:55:31;6.20;1.00
20174;DHT22;10246;50.620;7.232;2023-03-01T10:58:18;6.40;1.00
20174;DHT22;10246;50.620;7.232;2023-03-01T11:00:48;6.40;1.00
20174;DHT22;10246;50.620;7.232;2023-03-01T11:03:17;6.30;1.00
20174;DHT22;10246;50.620;7.232;2023-03-01T11:05:56;6.30;1.00
20174;DHT22;10246;50.620;7.232;2023-03-01T11:08:34;6.30;1.00
20174;DHT22;10246;50.620;7.232;2023-03-01T11:11:22;6.60;1.00
20174;DHT22;10246;50.620;7.232;2023-03-01T11:13:52;6.80;1.00
20174;DHT22;10246;50.620;7.232;2023-03-01T11:16:25;6.90;1.00
20174;DHT22;10246;50.620;7.232;2023-03-01T11:18:58;7.00;1.00
20174;DHT22;10246;50.620;7.232;2023-03-01T11:21:27;6.90;1.00
20174;DHT22;10246;50.620;7.232;2023-03-01T11:23:55;6.90;1.00
20174;DHT22;10246;50.620;7.232;2023-03-01T11:26:28;7.00;1.00
20174;DHT22;10246;50.620;7.232;2023-03-01T11:28:58;7.10;1.00
20174;DHT22;10246;50.620;7.232;2023-03-01T11:31:27;7.30;1.00
20174;DHT22;10246;50.620;7.232;2023-03-01T11:33:59;7.60;1.00
20174;DHT22;10246;50.620;7.232;2023-03-01T11:36:31;7.80;1.00
20174;DHT22;10246;50.620;7.232;2023-03-01T11:39:03;7.70;1.00
20174;DHT22;10246;50.620;7.232;2023-03-01T11:41:34;7.80;1.00
20174;DHT22;10246;50.620;7.232;2023-03-01T11:44:05;8.00;1.00
20174;DHT22;10246;50.620;7.232;2023-03-01T11:46:53;8.10;1.00
20174;DHT22;10246;50.620;7.232;2023-03-01T11:52:40;8.00;1.00
20174;DHT22;10246;50.620;7.232;2023-03-01T11:55:19;8.10;1.00
20174;DHT22;10246;50.620;7.232;2023-03-01T11:58:08;8.20;1.00
20174;DHT22;10246;50.620;7.232;2023-03-01T12:00:57;8.20;1.00
20174;DHT22;10246;50.620;7.232;2023-03-01T12:03:33;8.20;1.00
20174;DHT22;10246;50.620;7.232;2023-03-01T12:06:29;8.30;1.00
20174;DHT22;10246;50.620;7.232;2023-03-01T12:09:11;8.60;1.00
20174;DHT22;10246;50.620;7.232;2023-03-01T12:11:48;8.90;1.00
20174;DHT22;10246;50.620;7.232;2023-03-01T12:14:42;8.80;1.00
20174;DHT22;10246;50.620;7.232;2023-03-01T12:17:33;8.80;1.00
20174;DHT22;10246;50.620;7.232;2023-03-01T12:20:13;9.00;1.00
20174;DHT22;10246;50.620;7.232;2023-03-01T12:23:04;9.10;1.00
20174;DHT22;10246;50.620;7.232;2023-03-01T12:25:35;9.30;1.00
20174;DHT22;10246;50.620;7.232;2023-03-01T12:31:10;9.10;1.00
20174;DHT22;10246;50.620;7.232;2023-03-01T12:33:47;8.90;1.00
20174;DHT22;10246;50.620;7.232;2023-03-01T12:36:52;9.10;1.00
20174;DHT22;10246;50.620;7.232;2023-03-01T12:39:37;9.40;1.00
20174;DHT22;10246;50.620;7.232;2023-03-01T12:42:15;9.70;1.00
20174;DHT22;10246;50.620;7.232;2023-03-01T12:44:57;9.60;1.00
20174;DHT22;10246;50.620;7.232;2023-03-01T12:47:38;9.60;1.00
20174;DHT22;10246;50.620;7.232;2023-03-01T12:50:12;9.40;1.00
20174;DHT22;10246;50.620;7.232;2023-03-01T12:52:46;9.50;1.00
20174;DHT22;10246;50.620;7.232;2023-03-01T12:55:23;9.70;1.00
20174;DHT22;10246;50.620;7.232;2023-03-01T12:57:56;9.90;1.00
20174;DHT22;10246;50.620;7.232;2023-03-01T13:00:28;9.90;1.00
20174;DHT22;10246;50.620;7.232;2023-03-01T13:03:09;9.90;1.00
20174;DHT22;10246;50.620;7.232;2023-03-01T13:05:45;10.20;1.00
20174;DHT22;10246;50.620;7.232;2023-03-01T13:08:22;10.40;1.00
20174;DHT22;10246;50.620;7.232;2023-03-01T13:10:57;10.40;1.00
20174;DHT22;10246;50.620;7.232;2023-03-01T13:13:27;10.60;1.00
20174;DHT22;10246;50.620;7.232;2023-03-01T13:15:55;10.80;1.00
20174;DHT22;10246;50.620;7.232;2023-03-01T13:18:41;10.70;1.00
20174;DHT22;10246;50.620;7.232;2023-03-01T13:21:08;10.60;1.00
20174;DHT22;10246;50.620;7.232;2023-03-01T13:23:37;10.60;1.00
20174;DHT22;10246;50.620;7.232;2023-03-01T13:26:10;10.60;1.00
20174;DHT22;10246;50.620;7.232;2023-03-01T13:31:57;10.80;1.00
20174;DHT22;10246;50.620;7.232;2023-03-01T13:34:47;11.00;1.00
20174;DHT22;10246;50.620;7.232;2023-03-01T13:37:25;11.20;1.00
20174;DHT22;10246;50.620;7.232;2023-03-01T13:39:55;11.30;1.00
20174;DHT22;10246;50.620;7.232;2023-03-01T13:42:37;11.30;1.00
20174;DHT22;10246;50.620;7.232;2023-03-01T13:45:14;10.90;1.00
20174;DHT22;10246;50.620;7.232;2023-03-01T13:47:44;10.90;1.00
20174;DHT22;10246;50.620;7.232;2023-03-01T13:50:20;11.10;1.00
20174;DHT22;10246;50.620;7.232;2023-03-01T13:52:50;11.30;1.00
20174;DHT22;10246;50.620;7.232;2023-03-01T13:55:21;11.30;1.00
20174;DHT22;10246;50.620;7.232;2023-03-01T13:57:51;11.40;1.00
20174;DHT22;10246;50.620;7.232;2023-03-01T14:00:34;11.50;1.00
20174;DHT22;10246;50.620;7.232;2023-03-01T14:03:11;11.30;1.00
20174;DHT22;10246;50.620;7.232;2023-03-01T14:05:40;11.20;1.00
20174;DHT22;10246;50.620;7.232;2023-03-01T14:08:19;11.30;1.00
20174;DHT22;10246;50.620;7.232;2023-03-01T14:13:48;11.60;1.00
20174;DHT22;10246;50.620;7.232;2023-03-01T14:16:24;11.70;1.00
20174;DHT22;10246;50.620;7.232;2023-03-01T14:19:02;11.70;1.00
20174;DHT22;10246;50.620;7.232;2023-03-01T14:21:34;11.60;1.00
20174;DHT22;10246;50.620;7.232;2023-03-01T14:24:02;11.20;1.00
20174;DHT22;10246;50.620;7.232;2023-03-01T14:26:31;11.10;1.00
20174;DHT22;10246;50.620;7.232;2023-03-01T14:28:58;11.10;1.00
20174;DHT22;10246;50.620;7.232;2023-03-01T14:31:37;11.20;1.00
20174;DHT22;10246;50.620;7.232;2023-03-01T14:34:04;11.30;1.00
20174;DHT22;10246;50.620;7.232;2023-03-01T14:36:34;11.40;1.00
20174;DHT22;10246;50.620;7.232;2023-03-01T14:39:01;11.60;1.00
20174;DHT22;10246;50.620;7.232;2023-03-01T14:41:42;11.70;1.00
20174;DHT22;10246;50.620;7.232;2023-03-01T14:44:15;11.50;1.00
20174;DHT22;10246;50.620;7.232;2023-03-01T14:46:44;11.30;1.00
20174;DHT22;10246;50.620;7.232;2023-03-01T14:49:14;11.20;1.00
20174;DHT22;10246;50.620;7.232;2023-03-01T14:51:50;11.10;1.00
20174;DHT22;10246;50.620;7.232;2023-03-01T14:54:23;11.10;1.00
20174;DHT22;10246;50.620;7.232;2023-03-01T14:56:52;11.20;1.00
20174;DHT22;10246;50.620;7.232;2023-03-01T14:59:21;11.20;1.00
20174;DHT22;10246;50.620;7.232;2023-03-01T15:01:50;11.00;1.00
20174;DHT22;10246;50.620;7.232;2023-03-01T15:04:18;11.00;1.00
20174;DHT22;10246;50.620;7.232;2023-03-01T15:06:49;11.20;1.00
20174;DHT22;10246;50.620;7.232;2023-03-01T15:09:17;11.20;1.00
20174;DHT22;10246;50.620;7.232;2023-03-01T15:11:45;11.10;1.00
20174;DHT22;10246;50.620;7.232;2023-03-01T15:14:38;11.20;1.00
20174;DHT22;10246;50.620;7.232;2023-03-01T15:17:21;11.10;1.00
20174;DHT22;10246;50.620;7.232;2023-03-01T15:19:49;11.00;1.00
20174;DHT22;10246;50.620;7.232;2023-03-01T15:22:18;10.90;1.00
20174;DHT22;10246;50.620;7.232;2023-03-01T15:24:47;10.90;1.00
20174;DHT22;10246;50.620;7.232;2023-03-01T15:27:16;10.90;1.00
20174;DHT22;10246;50.620;7.232;2023-03-01T15:29:49;11.00;1.00
20174;DHT22;10246;50.620;7.232;2023-03-01T15:32:26;11.10;1.00
20174;DHT22;10246;50.620;7.232;2023-03-01T15:34:53;11.20;1.00
20174;DHT22;10246;50.620;7.232;2023-03-01T15:37:43;11.00;1.00
20174;DHT22;10246;50.620;7.232;2023-03-01T15:40:22;11.00;1.00
20174;DHT22;10246;50.620;7.232;2023-03-01T15:42:57;10.90;1.00
20174;DHT22;10246;50.620;7.232;2023-03-01T15:45:25;10.90;1.00
20174;DHT22;10246;50.620;7.232;2023-03-01T15:47:54;11.00;1.00
20174;DHT22;10246;50.620;7.232;2023-03-01T15:50:25;11.00;1.00
20174;DHT22;10246;50.620;7.232;2023-03-01T15:52:54;10.90;1.00
20174;DHT22;10246;50.620;7.232;2023-03-01T15:55:23;10.80;1.00
20174;DHT22;10246;50.620;7.232;2023-03-01T15:57:57;10.80;1.00
20174;DHT22;10246;50.620;7.232;2023-03-01T16:00:26;10.70;1.00
20174;DHT22;10246;50.620;7.232;2023-03-01T16:02:53;10.70;1.00
20174;DHT22;10246;50.620;7.232;2023-03-01T16:05:23;10.50;1.00
20174;DHT22;10246;50.620;7.232;2023-03-01T16:07:50;10.50;1.00
20174;DHT22;10246;50.620;7.232;2023-03-01T16:10:18;10.40;1.00
20174;DHT22;10246;50.620;7.232;2023-03-01T16:12:45;10.30;1.00
20174;DHT22;10246;50.620;7.232;2023-03-01T16:15:16;10.30;1.00
20174;DHT22;10246;50.620;7.232;2023-03-01T16:17:43;10.30;1.00
20174;DHT22;10246;50.620;7.232;2023-03-01T16:20:11;10.30;1.00
20174;DHT22;10246;50.620;7.232;2023-03-01T16:22:41;10.30;1.00
20174;DHT22;10246;50.620;7.232;2023-03-01T16:25:09;10.20;1.00